Columbus Air Force Base
KCBM : now visible

Airfield :











YOU CAN JOIN US ON...

 
LOGIN :

Register | Disclaimer

   EN    FR    IT 

 









Legend :    VFR   Marginal VFR   IFR   Intensive IFR   Very Intensive IFR
Visi :
Ceiling :
>= 8 km
>= 3000ft
5 to 8 km
1000 to 3000 ft
1500m to 5 km
500 to 1000 ft
800 to 1500m
200 to 500 ft
< 800m
< 200 ft
Symbols :   Thunderstorms  Fog  Heavy snow  Heavy precipitations  Wind > 20 kt






- Airport Elevation : 219 ft


KCBM - Columbus Air Force Base

CURRENT METAR :
  • 280356Z AUTO 13007KT 10SM FEW170 19/18 A2993 RMK AO2 SLP137 T01920180 $

EXPIRED METARs :
  • 280256Z AUTO 10005KT 10SM SCT120 20/19 A2991 RMK AO2 RAE11 SLP130 P0001 60005 T02000190 50006 $
  • 280226Z AUTO 11004KT 10SM FEW009 BKN110 20/19 A2991 RMK AO2 RAE11 SLP130 $
  • 280212Z AUTO 12004KT 10SM SCT037 20/19 A2990 RMK AO2 RAE11 SLP126 $
  • 280156Z AUTO 08008KT 10SM RA BKN042 21/19 A2989 RMK AO2 RAB27 SLP123 P0004 T02050193 $
  • 280142Z AUTO 08007KT 9SM RA FEW012 FEW029 BKN041 21/19 A2989 RMK AO2 RAB27 PRESFR SLP123 $

TAF AMD TAF KCBM
Valid from the 28 at 01:00 until the 28 at 23:00 UTC


280100Z 2801/2823 16012KT 9999 VCSH BKN030 QNH2975INS
TEMPO 2801/2802 21025G35KT 4800 TSRA BKN010 OVC025CB
BECMG 2801/2802 16008KT 8000 -SHRA SCT015 BKN030 QNH2975INS
BECMG 2805/2806 18006KT 8000 BR BKN010 QNH2980INS
BECMG 2814/2815 21010G15KT 9999 NSW FEW025 QNH2988INS
BECMG 2820/2821 21010G20KT 9999 -SHRA SCT030 QNH2990INS TX28/2813Z TN20/2811Z LAST NO AMDS AFT 2801 NEXT 2809
KZME FIR / North America



MET'MAP, your aeronautical weather chart ! - Copyright ORBIFLY December 2007 - Disclaimer

ORBIFLY MET'MAP TEAM :

Programming & Development : Alexandra Zaïnal
Concept & original design : Baudouin d'Aumeries
Assistance for programming : Marc-Olivier Méhu
Technical & hardware support : Manuel Goepfert

Contact : metmap@orbifly.com




SOURCES & CREDITS :

   NOAA       Earth
Advisory